createdAt,value
2018-12-06T00:01:07.277Z,10.40
2018-12-06T00:15:50.940Z,15.97
2018-12-06T00:21:10.957Z,13.20
2018-12-06T00:23:39.811Z,11.87
2018-12-06T00:26:08.867Z,13.20
2018-12-06T00:28:56.515Z,14.47
2018-12-06T00:31:26.052Z,15.70
2018-12-06T00:33:56.826Z,12.90
2018-12-06T00:36:35.562Z,11.13
2018-12-06T00:39:05.981Z,19.03
2018-12-06T00:42:09.560Z,22.97
2018-12-06T00:44:43.197Z,16.30
2018-12-06T00:50:10.652Z,20.93
2018-12-06T00:52:39.446Z,24.57
2018-12-06T00:55:08.396Z,12.10
2018-12-06T00:57:37.208Z,11.67
2018-12-06T01:00:06.412Z,11.47
2018-12-06T01:02:35.314Z,11.97
2018-12-06T01:05:04.927Z,9.10
2018-12-06T01:07:33.686Z,16.00
2018-12-06T01:10:02.546Z,16.67
2018-12-06T01:12:31.324Z,21.93
2018-12-06T01:15:00.605Z,13.97
2018-12-06T01:17:35.960Z,14.00
2018-12-06T01:20:09.022Z,12.43
2018-12-06T01:22:41.082Z,10.87
2018-12-06T01:25:15.644Z,8.43
2018-12-06T01:28:02.967Z,9.63
2018-12-06T01:30:31.822Z,8.93
2018-12-06T01:33:00.667Z,12.80
2018-12-06T01:35:31.662Z,11.30
2018-12-06T01:38:00.454Z,10.50
2018-12-06T01:40:29.209Z,6.20
2018-12-06T01:42:58.337Z,20.80
2018-12-06T01:45:27.169Z,8.37
2018-12-06T01:47:55.914Z,6.93
2018-12-06T01:50:24.700Z,7.03
2018-12-06T01:52:53.459Z,7.73
2018-12-06T01:55:22.248Z,8.03
2018-12-06T01:57:51.115Z,9.30
2018-12-06T02:00:19.986Z,7.90
2018-12-06T02:02:48.861Z,10.13
2018-12-06T02:05:17.763Z,8.63
2018-12-06T02:07:46.560Z,10.97
2018-12-06T02:10:15.325Z,8.97
2018-12-06T02:12:44.194Z,8.83
2018-12-06T02:15:13.162Z,7.60
2018-12-06T02:17:41.980Z,7.10
2018-12-06T02:20:10.770Z,9.03
2018-12-06T02:22:39.554Z,11.50
2018-12-06T02:25:08.574Z,10.27
2018-12-06T02:27:37.401Z,8.80
2018-12-06T02:30:06.411Z,9.47
2018-12-06T02:32:41.782Z,10.47
2018-12-06T02:35:13.850Z,9.57
2018-12-06T02:46:48.233Z,11.43
2018-12-06T02:49:17.018Z,11.40
2018-12-06T02:51:45.802Z,16.30
2018-12-06T02:54:18.410Z,12.93
2018-12-06T02:56:56.160Z,13.03
2018-12-06T02:59:47.610Z,11.33
2018-12-06T03:05:23.894Z,11.93
2018-12-06T03:07:56.758Z,12.83
2018-12-06T03:10:25.616Z,14.10
2018-12-06T03:12:54.554Z,13.20
2018-12-06T03:15:23.517Z,13.67
2018-12-06T03:17:56.015Z,12.13
2018-12-06T03:20:28.414Z,12.77
2018-12-06T03:23:04.083Z,14.07
2018-12-06T03:25:36.618Z,11.60
2018-12-06T03:28:09.398Z,13.10
2018-12-06T03:30:39.675Z,12.13
2018-12-06T03:33:12.689Z,12.33
2018-12-06T03:35:45.054Z,11.80
2018-12-06T03:38:17.203Z,10.40
2018-12-06T03:40:49.308Z,13.17
2018-12-06T03:43:41.541Z,11.17
2018-12-06T03:46:10.347Z,11.07
2018-12-06T03:48:39.136Z,12.83
2018-12-06T03:51:07.994Z,10.50
2018-12-06T03:53:36.974Z,10.97
2018-12-06T03:56:05.782Z,12.07
2018-12-06T03:58:34.851Z,12.63
2018-12-06T04:01:03.608Z,12.30
2018-12-06T04:03:32.484Z,12.13
2018-12-06T04:06:01.378Z,11.10
2018-12-06T04:08:30.232Z,11.50
2018-12-06T04:10:59.194Z,11.77
2018-12-06T04:16:31.286Z,11.63
2018-12-06T04:19:04.205Z,13.07
2018-12-06T04:21:34.162Z,13.00
2018-12-06T05:03:47.094Z,29.77
2018-12-06T05:06:16.470Z,15.90
2018-12-06T05:08:45.745Z,18.47
2018-12-06T05:11:14.880Z,18.40
2018-12-06T05:13:49.477Z,16.23
2018-12-06T05:16:18.849Z,15.97
2018-12-06T05:18:47.964Z,14.77
2018-12-06T05:21:16.836Z,12.20
2018-12-06T05:23:45.815Z,11.97
2018-12-06T05:26:15.041Z,16.43
2018-12-06T05:28:43.837Z,12.77
2018-12-06T05:34:17.210Z,16.47
2018-12-06T05:36:58.377Z,10.43
2018-12-06T05:39:27.235Z,9.77
2018-12-06T05:41:56.042Z,9.30
2018-12-06T05:44:24.822Z,9.63
2018-12-06T05:46:53.631Z,9.13
2018-12-06T05:49:22.455Z,9.67
2018-12-06T05:51:51.215Z,10.97
2018-12-06T05:54:20.070Z,11.70
2018-12-06T05:56:52.565Z,10.87
2018-12-06T05:59:25.432Z,9.63
2018-12-06T06:04:53.644Z,12.57
2018-12-06T06:07:22.429Z,8.77
2018-12-06T06:09:51.353Z,28.93
2018-12-06T06:12:20.369Z,35.27
2018-12-06T06:14:49.178Z,37.97
2018-12-06T06:17:18.030Z,30.90
2018-12-06T06:19:46.826Z,21.63
2018-12-06T06:22:15.621Z,12.67
2018-12-06T06:24:44.508Z,14.40
2018-12-06T06:27:13.377Z,8.60
2018-12-06T06:29:42.181Z,7.97
2018-12-06T06:32:11.042Z,8.40
2018-12-06T06:34:40.956Z,7.80
2018-12-06T06:37:15.938Z,9.33
2018-12-06T06:39:44.967Z,8.93
2018-12-06T06:42:14.928Z,9.10
2018-12-06T06:44:43.829Z,9.40
2018-12-06T06:47:33.362Z,10.97
2018-12-06T06:50:03.039Z,11.67
2018-12-06T06:52:36.327Z,11.33
2018-12-06T06:55:05.247Z,10.90
2018-12-06T06:57:34.078Z,11.77
2018-12-06T07:00:03.190Z,14.47
2018-12-06T07:02:32.141Z,11.30
2018-12-06T07:05:00.941Z,10.73
2018-12-06T07:07:29.874Z,16.87
2018-12-06T07:09:58.743Z,17.97
2018-12-06T07:12:27.552Z,17.23
2018-12-06T07:14:56.572Z,16.33
2018-12-06T07:17:25.478Z,15.60
2018-12-06T07:20:01.921Z,14.83
2018-12-06T07:25:46.367Z,13.10
2018-12-06T07:28:21.804Z,15.97
2018-12-06T07:30:51.916Z,13.53
2018-12-06T07:33:20.902Z,16.77
2018-12-06T07:35:55.490Z,18.97
2018-12-06T07:38:24.310Z,16.13
2018-12-06T07:44:07.226Z,15.73
2018-12-06T07:49:43.874Z,14.10
2018-12-06T07:58:11.640Z,14.77
2018-12-06T08:00:40.540Z,22.20
2018-12-06T08:03:09.424Z,14.17
2018-12-06T08:05:42.938Z,13.53
2018-12-06T08:08:11.802Z,13.67
2018-12-06T08:10:41.072Z,14.53
2018-12-06T08:13:13.017Z,14.30
2018-12-06T08:15:41.847Z,15.10
2018-12-06T08:18:10.634Z,15.10
2018-12-06T08:20:39.623Z,13.27
2018-12-06T08:23:08.414Z,13.47
2018-12-06T08:25:37.222Z,13.23
2018-12-06T08:28:06.130Z,12.70
2018-12-06T08:30:35.021Z,9.17
2018-12-06T08:33:03.827Z,8.20
2018-12-06T08:35:32.706Z,8.17
2018-12-06T08:38:01.509Z,7.67
2018-12-06T08:40:30.490Z,6.83
2018-12-06T08:42:59.353Z,7.20
2018-12-06T08:45:28.237Z,6.80
2018-12-06T08:47:57.302Z,10.53
2018-12-06T08:50:26.184Z,10.33
2018-12-06T08:52:56.032Z,10.27
2018-12-06T08:55:24.877Z,11.10
2018-12-06T08:57:53.790Z,9.80
2018-12-06T09:00:22.599Z,6.87
2018-12-06T09:02:51.512Z,5.90
2018-12-06T09:05:20.470Z,5.57
2018-12-06T09:07:49.283Z,7.37
2018-12-06T09:10:18.798Z,6.27
2018-12-06T09:12:47.798Z,4.30
2018-12-06T09:15:16.605Z,4.30
2018-12-06T09:17:46.476Z,4.20
2018-12-06T09:20:15.271Z,3.40
2018-12-06T09:22:44.076Z,3.53
2018-12-06T09:25:12.916Z,3.57
2018-12-06T09:27:41.724Z,4.90
2018-12-06T09:30:10.718Z,3.23
2018-12-06T09:32:39.770Z,4.30
2018-12-06T09:35:08.639Z,3.40
2018-12-06T09:37:37.451Z,2.60
2018-12-06T09:40:06.477Z,2.67
2018-12-06T09:42:35.294Z,2.87
2018-12-06T09:45:04.697Z,3.03
2018-12-06T09:47:33.500Z,3.37
2018-12-06T09:50:02.396Z,2.47
2018-12-06T09:52:31.368Z,2.70
2018-12-06T09:55:00.200Z,4.60
2018-12-06T09:57:29.004Z,4.87
2018-12-06T09:59:57.843Z,4.57
2018-12-06T10:02:26.842Z,1.90
2018-12-06T10:04:55.645Z,2.40
2018-12-06T10:07:24.457Z,2.50
2018-12-06T10:09:53.269Z,3.60
2018-12-06T10:12:22.257Z,3.07
2018-12-06T10:14:51.114Z,2.83
2018-12-06T10:17:20.086Z,2.87
2018-12-06T10:19:48.922Z,3.47
2018-12-06T10:22:17.822Z,4.67
2018-12-06T10:24:46.796Z,4.50
2018-12-06T10:27:15.673Z,3.53
2018-12-06T10:29:44.463Z,2.67
2018-12-06T10:32:13.272Z,2.37
2018-12-06T10:34:42.530Z,3.03
2018-12-06T10:37:11.326Z,3.77
2018-12-06T10:39:40.141Z,2.60
2018-12-06T10:42:09.061Z,2.40
2018-12-06T10:44:37.846Z,3.40
2018-12-06T10:47:06.928Z,3.00
2018-12-06T10:49:35.816Z,3.37
2018-12-06T10:52:04.632Z,2.13
2018-12-06T10:54:33.425Z,2.33
2018-12-06T10:57:02.247Z,6.90
2018-12-06T10:59:31.119Z,4.33
2018-12-06T11:02:06.611Z,11.07
2018-12-06T11:04:36.414Z,2.93
2018-12-06T11:07:06.721Z,4.23
2018-12-06T11:09:35.562Z,2.80
2018-12-06T11:12:04.497Z,2.73
2018-12-06T11:14:33.285Z,3.93
2018-12-06T11:17:02.097Z,4.53
2018-12-06T11:19:30.897Z,3.33
2018-12-06T11:21:59.732Z,3.63
2018-12-06T11:24:29.001Z,5.03
2018-12-06T11:26:57.823Z,2.43
2018-12-06T11:29:26.722Z,3.80
2018-12-06T11:31:55.780Z,3.10
2018-12-06T11:34:24.774Z,3.87
2018-12-06T11:36:53.622Z,5.10
2018-12-06T11:39:22.425Z,4.53
2018-12-06T11:41:51.241Z,2.60
2018-12-06T11:44:20.030Z,6.00
2018-12-06T11:46:48.821Z,3.27
2018-12-06T11:49:17.646Z,5.00
2018-12-06T11:51:46.449Z,3.27
2018-12-06T11:54:15.294Z,2.03
2018-12-06T11:56:44.121Z,7.70
2018-12-06T11:59:12.979Z,3.20
2018-12-06T12:01:41.970Z,2.60
2018-12-06T12:04:10.774Z,4.20
2018-12-06T12:06:39.581Z,4.30
2018-12-06T12:09:09.062Z,3.27
2018-12-06T12:11:37.919Z,4.17
2018-12-06T12:14:06.780Z,3.00
2018-12-06T12:16:35.615Z,4.17
2018-12-06T12:19:04.561Z,6.70
2018-12-06T12:21:33.521Z,3.00
2018-12-06T12:24:02.343Z,5.50
2018-12-06T12:26:31.144Z,4.10
2018-12-06T12:28:59.951Z,3.97
2018-12-06T12:31:29.003Z,2.63
2018-12-06T12:33:57.961Z,3.20
2018-12-06T12:36:26.789Z,3.67
2018-12-06T12:38:55.954Z,4.37
2018-12-06T12:41:24.831Z,4.50
2018-12-06T12:43:53.629Z,5.03
2018-12-06T12:46:22.427Z,4.70
2018-12-06T12:48:51.579Z,2.93
2018-12-06T12:51:20.427Z,2.70
2018-12-06T12:53:49.261Z,4.80
2018-12-06T12:56:18.702Z,4.93
2018-12-06T12:58:47.518Z,6.60
2018-12-06T13:01:16.341Z,6.27
2018-12-06T13:03:45.245Z,4.27
2018-12-06T13:06:14.054Z,4.03
2018-12-06T13:08:43.464Z,5.90
2018-12-06T13:11:12.607Z,3.23
2018-12-06T13:13:41.466Z,4.40
2018-12-06T13:16:10.350Z,4.90
2018-12-06T13:18:39.333Z,5.70
2018-12-06T13:21:08.226Z,3.63
2018-12-06T13:23:37.114Z,5.27
2018-12-06T13:26:06.095Z,6.03
2018-12-06T13:28:35.086Z,4.83
2018-12-06T13:31:04.008Z,4.27
2018-12-06T13:33:33.186Z,2.47
2018-12-06T13:36:01.985Z,3.10
2018-12-06T13:38:30.786Z,7.50
2018-12-06T13:40:59.600Z,4.33
2018-12-06T13:43:28.502Z,6.63
2018-12-06T13:45:57.308Z,2.60
2018-12-06T13:48:26.299Z,3.13
2018-12-06T13:50:55.095Z,3.07
2018-12-06T13:53:23.999Z,5.03
2018-12-06T13:55:53.054Z,3.50
2018-12-06T13:58:21.859Z,4.40
2018-12-06T14:00:51.056Z,5.13
2018-12-06T14:03:20.037Z,4.20
2018-12-06T14:05:48.858Z,4.57
2018-12-06T14:08:17.662Z,3.50
2018-12-06T14:10:46.487Z,4.40
2018-12-06T14:13:15.270Z,4.90
2018-12-06T14:15:45.182Z,2.77
2018-12-06T14:18:13.995Z,2.63
2018-12-06T14:20:42.804Z,1.87
2018-12-06T14:23:11.618Z,3.27
2018-12-06T14:25:40.418Z,2.13
2018-12-06T14:28:09.260Z,1.83
2018-12-06T14:30:38.047Z,1.60
2018-12-06T14:33:06.863Z,3.07
2018-12-06T14:35:35.741Z,2.20
2018-12-06T14:38:04.645Z,3.03
2018-12-06T14:40:33.478Z,2.73
2018-12-06T14:43:02.353Z,3.33
2018-12-06T14:45:31.246Z,1.90
2018-12-06T14:48:00.495Z,1.93
2018-12-06T14:50:29.275Z,2.50
2018-12-06T14:52:58.155Z,2.63
2018-12-06T14:55:26.935Z,1.30
2018-12-06T14:57:56.076Z,1.57
2018-12-06T15:00:24.877Z,1.80
2018-12-06T15:02:53.677Z,4.40
2018-12-06T15:05:22.483Z,3.47
2018-12-06T15:07:51.305Z,2.07
2018-12-06T15:10:20.150Z,2.40
2018-12-06T15:12:49.057Z,2.37
2018-12-06T15:15:17.957Z,3.03
2018-12-06T15:17:46.755Z,3.97
2018-12-06T15:20:15.549Z,2.80
2018-12-06T15:22:44.617Z,3.60
2018-12-06T15:25:13.485Z,4.87
2018-12-06T15:27:42.539Z,3.10
2018-12-06T15:30:12.501Z,3.63
2018-12-06T15:32:41.286Z,3.97
2018-12-06T15:35:10.297Z,6.13
2018-12-06T15:37:39.108Z,9.13
2018-12-06T15:40:09.229Z,6.37
2018-12-06T15:42:38.071Z,8.27
2018-12-06T15:45:07.251Z,7.17
2018-12-06T15:47:36.084Z,5.93
2018-12-06T15:50:05.332Z,6.60
2018-12-06T15:52:34.143Z,6.00
2018-12-06T15:55:03.103Z,9.03
2018-12-06T15:57:31.922Z,5.00
2018-12-06T16:00:00.734Z,4.63
2018-12-06T16:02:29.804Z,2.73
2018-12-06T16:04:58.699Z,7.43
2018-12-06T16:07:27.478Z,6.03
2018-12-06T16:09:56.262Z,7.03
2018-12-06T16:12:25.082Z,5.90
2018-12-06T16:14:54.045Z,6.37
2018-12-06T16:17:22.830Z,8.07
2018-12-06T16:19:51.907Z,6.00
2018-12-06T16:22:20.769Z,8.77
2018-12-06T16:24:49.580Z,10.03
2018-12-06T16:27:18.397Z,6.03
2018-12-06T16:29:51.547Z,4.83
2018-12-06T16:32:18.070Z,6.30
2018-12-06T16:40:57.447Z,11.63
2018-12-06T16:43:26.271Z,11.53
2018-12-06T16:45:55.129Z,13.63
2018-12-06T16:51:31.385Z,13.53
2018-12-06T16:54:00.231Z,11.97
2018-12-06T16:56:29.051Z,10.33
2018-12-06T16:58:57.853Z,12.13
2018-12-06T17:01:26.685Z,9.43
2018-12-06T17:03:55.537Z,8.10
2018-12-06T17:06:24.333Z,9.83
2018-12-06T17:08:53.145Z,9.87
2018-12-06T17:11:22.090Z,9.87
2018-12-06T17:13:51.074Z,8.67
2018-12-06T17:16:19.898Z,6.40
2018-12-06T17:18:48.765Z,8.20
2018-12-06T17:21:17.559Z,6.30
2018-12-06T17:23:46.369Z,12.53
2018-12-06T17:26:15.168Z,11.37
2018-12-06T17:28:44.037Z,10.73
2018-12-06T17:31:12.930Z,13.63
2018-12-06T17:33:41.811Z,12.37
2018-12-06T17:36:10.637Z,15.87
2018-12-06T17:38:40.487Z,14.60
2018-12-06T17:41:09.354Z,14.83
2018-12-06T17:43:38.294Z,9.60
2018-12-06T17:46:07.090Z,10.00
2018-12-06T17:48:35.898Z,13.27
2018-12-06T17:51:04.774Z,11.63
2018-12-06T17:53:33.621Z,11.27
2018-12-06T17:56:02.554Z,14.57
2018-12-06T17:58:31.431Z,13.93
2018-12-06T18:01:00.315Z,14.27
2018-12-06T18:03:29.258Z,15.13
2018-12-06T18:05:58.173Z,16.07
2018-12-06T18:08:26.983Z,12.07
2018-12-06T18:10:55.974Z,14.37
2018-12-06T18:13:24.954Z,13.37
2018-12-06T18:15:54.053Z,17.77
2018-12-06T18:18:22.950Z,17.10
2018-12-06T18:20:51.769Z,20.90
2018-12-06T18:23:20.556Z,41.10
2018-12-06T18:25:49.615Z,23.40
2018-12-06T18:28:18.460Z,21.60
2018-12-06T18:30:47.390Z,19.20
2018-12-06T18:33:16.218Z,26.47
2018-12-06T18:35:45.020Z,19.60
2018-12-06T18:38:14.435Z,21.70
2018-12-06T18:40:43.443Z,19.50
2018-12-06T18:43:12.276Z,21.57
2018-12-06T18:45:41.143Z,21.93
2018-12-06T18:48:09.955Z,22.13
2018-12-06T18:50:39.086Z,20.37
2018-12-06T18:53:08.082Z,20.63
2018-12-06T18:55:40.567Z,21.67
2018-12-06T18:58:09.610Z,23.30
2018-12-06T19:00:40.518Z,6.93
2018-12-06T19:03:09.541Z,22.13
2018-12-06T19:05:38.378Z,19.83
2018-12-06T19:08:08.890Z,16.90
2018-12-06T19:10:37.789Z,15.17
2018-12-06T19:13:06.955Z,22.80
2018-12-06T19:15:59.442Z,25.60
2018-12-06T19:18:28.293Z,18.30
2018-12-06T19:20:57.263Z,15.13
2018-12-06T19:23:27.041Z,13.03
2018-12-06T19:25:56.002Z,16.97
2018-12-06T19:28:24.818Z,11.60
2018-12-06T19:30:53.766Z,8.57
2018-12-06T19:33:22.557Z,7.87
2018-12-06T19:35:51.433Z,11.87
2018-12-06T19:38:20.302Z,8.50
2018-12-06T19:40:49.122Z,7.50
2018-12-06T19:43:17.950Z,7.10
2018-12-06T19:45:46.778Z,7.83
2018-12-06T19:48:15.591Z,4.17
2018-12-06T19:50:44.446Z,3.20
2018-12-06T19:53:13.229Z,5.83
2018-12-06T19:55:42.111Z,5.70
2018-12-06T19:58:11.060Z,4.80
2018-12-06T20:00:39.937Z,2.73
2018-12-06T20:03:31.215Z,2.60
2018-12-06T20:06:02.154Z,2.47
2018-12-06T20:08:31.052Z,1.60
2018-12-06T20:11:00.173Z,1.87
2018-12-06T20:13:34.074Z,2.87
2018-12-06T20:16:03.273Z,1.87
2018-12-06T20:18:32.065Z,2.70
2018-12-06T20:21:00.873Z,3.50
2018-12-06T20:23:29.749Z,1.47
2018-12-06T20:25:58.737Z,2.27
2018-12-06T20:28:27.785Z,1.67
2018-12-06T20:30:57.622Z,1.93
2018-12-06T20:33:26.807Z,4.10
2018-12-06T20:35:56.388Z,1.43
2018-12-06T20:38:32.145Z,1.90
2018-12-06T20:41:01.061Z,3.80
2018-12-06T20:43:29.873Z,1.50
2018-12-06T20:45:58.671Z,1.60
2018-12-06T20:48:27.598Z,1.90
2018-12-06T20:50:56.561Z,2.13
2018-12-06T20:53:25.353Z,2.13
2018-12-06T20:55:54.265Z,2.10
2018-12-06T20:58:23.146Z,2.40
2018-12-06T21:00:53.442Z,2.60
2018-12-06T21:03:22.352Z,2.00
2018-12-06T21:05:51.201Z,3.17
2018-12-06T21:08:20.231Z,2.50
2018-12-06T21:10:51.057Z,2.37
2018-12-06T21:13:20.757Z,2.90
2018-12-06T21:15:49.570Z,2.40
2018-12-06T21:18:20.755Z,2.70
2018-12-06T21:20:52.187Z,3.33
2018-12-06T21:23:21.001Z,1.50
2018-12-06T21:25:49.799Z,1.43
2018-12-06T21:28:20.255Z,1.50
2018-12-06T21:30:49.890Z,1.23
2018-12-06T21:33:18.950Z,1.90
2018-12-06T21:35:47.758Z,1.50
2018-12-06T21:38:16.713Z,2.60
2018-12-06T21:40:45.525Z,3.13
2018-12-06T21:43:14.365Z,3.80
2018-12-06T21:45:43.259Z,2.33
2018-12-06T21:48:12.110Z,3.00
2018-12-06T21:50:40.916Z,1.87
2018-12-06T21:53:09.738Z,2.43
2018-12-06T21:55:38.575Z,3.40
2018-12-06T21:58:07.439Z,2.37
2018-12-06T22:00:36.330Z,2.40
2018-12-06T22:03:05.117Z,2.63
2018-12-06T22:05:35.440Z,3.53
2018-12-06T22:08:04.251Z,1.83
2018-12-06T22:10:33.044Z,3.90
2018-12-06T22:13:01.859Z,3.87
2018-12-06T22:15:30.731Z,3.40
2018-12-06T22:17:59.519Z,2.30
2018-12-06T22:20:28.358Z,2.73
2018-12-06T22:23:01.145Z,3.30
2018-12-06T22:25:29.071Z,2.00
2018-12-06T22:27:57.857Z,2.23
2018-12-06T22:30:26.715Z,1.90
2018-12-06T22:32:55.522Z,2.30
2018-12-06T22:35:24.403Z,1.70
2018-12-06T22:37:55.284Z,1.87
2018-12-06T22:40:28.533Z,2.00
2018-12-06T22:43:10.878Z,1.70
2018-12-06T22:46:10.313Z,2.17
2018-12-06T23:52:49.950Z,2.07
2018-12-06T23:55:18.759Z,8.03
2018-12-06T23:57:47.646Z,6.07
